createdAt,value
2023-01-17T00:02:34.171Z,21.70
2023-01-17T00:07:54.486Z,24.87
2023-01-17T00:13:01.913Z,29.17
2023-01-17T00:18:08.587Z,28.20
2023-01-17T00:24:01.111Z,29.13
2023-01-17T00:29:03.117Z,27.10
2023-01-17T00:34:05.373Z,29.20
2023-01-17T00:39:07.028Z,30.03
2023-01-17T00:44:27.469Z,29.37
2023-01-17T00:49:49.916Z,29.43
2023-01-17T00:55:12.527Z,33.30
2023-01-17T01:00:33.547Z,33.83
2023-01-17T01:05:56.104Z,29.70
2023-01-17T01:11:16.634Z,28.43
2023-01-17T01:16:38.738Z,23.67
2023-01-17T01:22:01.562Z,25.33
2023-01-17T01:27:24.636Z,20.50
2023-01-17T01:32:44.832Z,18.03
2023-01-17T01:37:47.858Z,19.80
2023-01-17T01:42:54.211Z,17.83
2023-01-17T01:48:21.131Z,18.87
2023-01-17T01:53:23.020Z,20.73
2023-01-17T01:58:28.108Z,18.00
2023-01-17T02:03:31.884Z,20.07
2023-01-17T02:08:51.400Z,18.43
2023-01-17T02:13:55.279Z,22.10
2023-01-17T02:19:00.224Z,22.23
2023-01-17T02:24:20.855Z,19.77
2023-01-17T02:29:34.829Z,20.17
2023-01-17T02:35:01.014Z,21.97
2023-01-17T02:40:06.490Z,15.77
2023-01-17T02:45:08.812Z,11.47
2023-01-17T02:50:18.452Z,8.23
2023-01-17T02:55:30.444Z,6.30
2023-01-17T03:01:01.160Z,9.37
2023-01-17T03:06:17.136Z,14.57
2023-01-17T03:11:23.233Z,11.57
2023-01-17T03:16:29.525Z,9.07
2023-01-17T03:21:33.786Z,4.33
2023-01-17T03:26:35.624Z,8.40
2023-01-17T03:31:39.596Z,6.07
2023-01-17T03:36:44.095Z,10.27
2023-01-17T03:41:45.837Z,13.17
2023-01-17T03:46:47.671Z,8.23
2023-01-17T03:51:50.496Z,14.23
2023-01-17T03:56:52.505Z,12.77
2023-01-17T04:01:58.958Z,21.33
2023-01-17T04:07:04.751Z,12.90
2023-01-17T04:12:09.534Z,6.47
2023-01-17T04:17:14.590Z,5.43
2023-01-17T04:22:16.574Z,8.50
2023-01-17T04:27:24.408Z,10.87
2023-01-17T04:32:29.902Z,6.77
2023-01-17T04:37:31.639Z,9.80
2023-01-17T04:42:37.344Z,12.27
2023-01-17T04:47:43.976Z,9.83
2023-01-17T04:52:50.177Z,9.07
2023-01-17T04:57:54.637Z,10.50
2023-01-17T05:03:03.486Z,11.93
2023-01-17T05:08:11.192Z,8.50
2023-01-17T05:13:13.175Z,9.77
2023-01-17T05:18:18.389Z,8.63
2023-01-17T05:23:20.212Z,9.47
2023-01-17T05:28:26.729Z,14.07
2023-01-17T05:33:31.289Z,15.87
2023-01-17T05:38:35.140Z,11.23
2023-01-17T05:43:39.890Z,17.27
2023-01-17T05:48:46.776Z,12.40
2023-01-17T05:53:51.197Z,14.17
2023-01-17T05:58:53.017Z,10.23
2023-01-17T06:03:59.942Z,12.75
2023-01-17T06:09:06.601Z,13.47
2023-01-17T06:14:10.500Z,10.53
2023-01-17T06:19:13.382Z,14.00
2023-01-17T06:24:17.477Z,10.53
2023-01-17T06:29:22.598Z,13.30
2023-01-17T06:34:24.631Z,19.23
2023-01-17T06:39:26.437Z,14.40
2023-01-17T06:44:40.443Z,9.20
2023-01-17T06:49:45.961Z,11.50
2023-01-17T06:54:51.595Z,12.17
2023-01-17T06:59:55.729Z,15.47
2023-01-17T07:04:57.446Z,15.40
2023-01-17T07:10:00.397Z,8.73
2023-01-17T07:15:05.764Z,6.03
2023-01-17T07:20:10.348Z,9.80
2023-01-17T07:25:14.606Z,9.07
2023-01-17T07:30:21.617Z,15.03
2023-01-17T07:35:26.614Z,10.47
2023-01-17T07:40:28.519Z,13.47
2023-01-17T07:45:33.178Z,12.73
2023-01-17T07:50:42.189Z,8.83
2023-01-17T07:55:46.250Z,9.80
2023-01-17T08:00:48.203Z,3.30
2023-01-17T08:05:57.839Z,4.50
2023-01-17T08:10:59.890Z,2.10
2023-01-17T08:16:04.488Z,3.70
2023-01-17T08:21:14.315Z,3.33
2023-01-17T08:26:22.263Z,4.20
2023-01-17T08:31:30.332Z,3.70
2023-01-17T08:36:32.278Z,7.83
2023-01-17T08:41:34.812Z,7.83
2023-01-17T08:46:38.295Z,7.23
2023-01-17T08:51:40.363Z,7.43
2023-01-17T08:56:44.736Z,4.97
2023-01-17T09:01:48.926Z,7.53
2023-01-17T09:06:53.061Z,13.37
2023-01-17T09:11:56.284Z,3.90
2023-01-17T09:16:58.264Z,4.90
2023-01-17T09:22:00.120Z,5.40
2023-01-17T09:27:02.079Z,6.77
2023-01-17T09:32:04.347Z,5.27
2023-01-17T09:37:08.285Z,7.33
2023-01-17T09:42:25.621Z,4.23
2023-01-17T09:47:44.369Z,2.83
2023-01-17T09:52:46.355Z,6.37
2023-01-17T09:58:01.426Z,8.13
2023-01-17T10:03:22.336Z,4.53
2023-01-17T10:09:08.123Z,7.00
2023-01-17T10:14:31.147Z,6.23
2023-01-17T10:20:14.416Z,2.33
2023-01-17T10:25:39.525Z,6.37
2023-01-17T10:30:49.926Z,4.80
2023-01-17T10:36:08.938Z,1.63
2023-01-17T10:41:20.991Z,1.63
2023-01-17T10:46:28.969Z,3.87
2023-01-17T10:51:47.553Z,3.63
2023-01-17T10:56:49.308Z,5.93
2023-01-17T11:01:53.323Z,5.37
2023-01-17T11:07:20.596Z,3.27
2023-01-17T11:12:41.498Z,2.43
2023-01-17T11:17:53.088Z,3.33
2023-01-17T11:23:06.760Z,1.23
2023-01-17T11:28:38.801Z,4.33
2023-01-17T11:33:45.280Z,4.40
2023-01-17T11:38:56.301Z,2.70
2023-01-17T11:44:02.299Z,2.53
2023-01-17T11:49:05.715Z,2.80
2023-01-17T11:54:39.206Z,7.90
2023-01-17T11:59:45.158Z,2.73
2023-01-17T12:05:10.555Z,3.47
2023-01-17T12:10:38.048Z,4.63
2023-01-17T12:16:00.261Z,3.90
2023-01-17T12:21:20.563Z,4.17
2023-01-17T12:26:34.335Z,3.73
2023-01-17T12:32:03.551Z,4.67
2023-01-17T12:37:21.076Z,3.30
2023-01-17T12:42:31.879Z,2.30
2023-01-17T12:47:36.281Z,2.60
2023-01-17T12:53:01.897Z,1.50
2023-01-17T12:58:14.966Z,0.60
2023-01-17T13:03:24.742Z,5.33
2023-01-17T13:08:38.787Z,3.20
2023-01-17T13:13:44.036Z,4.13
2023-01-17T13:18:52.585Z,2.77
2023-01-17T13:23:59.154Z,5.20
2023-01-17T13:29:21.802Z,1.63
2023-01-17T13:34:35.048Z,4.10
2023-01-17T13:40:29.478Z,2.47
2023-01-17T13:45:33.725Z,2.83
2023-01-17T13:50:41.947Z,2.17
2023-01-17T13:55:46.084Z,6.37
2023-01-17T14:00:49.612Z,2.13
2023-01-17T14:05:57.494Z,4.70
2023-01-17T14:11:09.809Z,4.10
2023-01-17T14:16:21.773Z,2.97
2023-01-17T14:21:35.688Z,4.93
2023-01-17T14:26:55.621Z,5.73
2023-01-17T14:32:02.619Z,4.17
2023-01-17T14:37:32.624Z,5.60
2023-01-17T14:42:35.955Z,5.30
2023-01-17T14:47:39.454Z,7.10
2023-01-17T14:52:47.092Z,7.33
2023-01-17T14:57:57.763Z,7.10
2023-01-17T15:03:05.254Z,5.63
2023-01-17T15:08:13.840Z,7.63
2023-01-17T15:13:18.123Z,5.53
2023-01-17T15:18:29.980Z,6.90
2023-01-17T15:23:51.358Z,5.20
2023-01-17T15:28:56.432Z,3.17
2023-01-17T15:33:58.257Z,8.47
2023-01-17T15:39:14.985Z,5.17
2023-01-17T15:44:39.081Z,7.50
2023-01-17T15:49:52.508Z,7.40
2023-01-17T15:55:01.468Z,4.87
2023-01-17T16:00:21.496Z,8.53
2023-01-17T16:05:32.974Z,10.47
2023-01-17T16:10:44.401Z,7.73
2023-01-17T16:15:53.086Z,3.73
2023-01-17T16:21:01.291Z,7.33
2023-01-17T16:26:10.868Z,6.50
2023-01-17T16:31:12.728Z,4.70
2023-01-17T16:36:20.881Z,6.60
2023-01-17T16:41:29.571Z,5.53
2023-01-17T16:46:38.609Z,8.17
2023-01-17T16:51:48.758Z,6.00
2023-01-17T16:56:50.682Z,9.57
2023-01-17T17:01:53.150Z,8.50
2023-01-17T17:06:54.911Z,6.20
2023-01-17T17:12:01.639Z,4.93
2023-01-17T17:17:06.935Z,5.77
2023-01-17T17:22:09.244Z,5.87
2023-01-17T17:27:15.489Z,6.83
2023-01-17T17:32:19.488Z,11.67
2023-01-17T17:37:23.887Z,6.90
2023-01-17T17:42:25.925Z,6.00
2023-01-17T17:47:29.523Z,8.87
2023-01-17T17:52:33.637Z,4.53
2023-01-17T17:57:35.484Z,4.60
2023-01-17T18:02:40.384Z,6.43
2023-01-17T18:07:44.394Z,6.45
2023-01-17T18:12:50.963Z,8.73
2023-01-17T18:17:55.660Z,9.00
2023-01-17T18:23:02.220Z,8.93
2023-01-17T18:28:06.397Z,10.53
2023-01-17T18:33:08.104Z,7.43
2023-01-17T18:38:11.546Z,6.43
2023-01-17T18:43:18.062Z,8.40
2023-01-17T18:48:19.717Z,8.83
2023-01-17T18:53:25.936Z,6.47
2023-01-17T18:58:31.851Z,7.57
2023-01-17T19:03:36.778Z,6.53
2023-01-17T19:08:38.622Z,11.70
2023-01-17T19:13:42.820Z,4.07
2023-01-17T19:18:52.075Z,9.40
2023-01-17T19:23:56.234Z,6.23
2023-01-17T19:29:00.429Z,10.47
2023-01-17T19:40:00.799Z,9.93
2023-01-17T19:45:03.181Z,7.43
2023-01-17T19:50:11.629Z,11.97
2023-01-17T19:55:13.582Z,10.27
2023-01-17T20:00:20.536Z,12.37
2023-01-17T20:05:22.372Z,14.60
2023-01-17T20:10:27.005Z,5.60
2023-01-17T20:15:29.780Z,6.53
2023-01-17T20:20:34.366Z,6.33
2023-01-17T20:25:45.596Z,6.73
2023-01-17T20:30:52.769Z,10.90
2023-01-17T20:36:09.155Z,6.80
2023-01-17T20:41:21.291Z,5.13
2023-01-17T20:46:25.494Z,9.67
2023-01-17T20:51:28.653Z,7.33
2023-01-17T20:56:34.585Z,10.57
2023-01-17T21:01:37.177Z,7.93
2023-01-17T21:06:42.963Z,11.77
2023-01-17T21:11:46.225Z,9.63
2023-01-17T21:16:50.468Z,13.00
2023-01-17T21:21:52.289Z,8.70
2023-01-17T21:26:56.928Z,9.20
2023-01-17T21:31:58.751Z,10.53
2023-01-17T21:37:00.537Z,6.20
2023-01-17T21:42:08.525Z,5.73
2023-01-17T21:47:12.385Z,9.67
2023-01-17T21:52:21.638Z,6.47
2023-01-17T21:57:41.765Z,5.53
2023-01-17T22:02:49.553Z,6.77
2023-01-17T22:08:12.045Z,8.00
2023-01-17T22:13:17.962Z,5.87
2023-01-17T22:18:25.340Z,8.30
2023-01-17T22:23:28.415Z,6.03
2023-01-17T22:28:34.708Z,16.30
2023-01-17T22:33:39.858Z,5.90
2023-01-17T22:38:42.416Z,9.13
2023-01-17T22:43:46.992Z,8.17
2023-01-17T22:48:52.327Z,7.57
2023-01-17T22:54:02.714Z,6.00
2023-01-17T22:59:11.645Z,6.63
2023-01-17T23:04:14.355Z,4.97
2023-01-17T23:09:18.183Z,7.00
2023-01-17T23:14:51.112Z,4.90
2023-01-17T23:19:54.542Z,8.23
2023-01-17T23:24:58.884Z,5.63
2023-01-17T23:30:01.240Z,5.57
2023-01-17T23:35:05.649Z,7.90
2023-01-17T23:40:14.259Z,8.70
2023-01-17T23:45:16.025Z,9.90
2023-01-17T23:50:17.743Z,9.23
2023-01-17T23:55:19.435Z,10.03
